Terminal Aerodrome Forecast
Issued by NWS

Home | Current Version | Previous Version | Text Only | Print | Product List | Glossary On
Versions: 1 2 3 4 5 6 7 8 9 10 11 12 13 14
000
FTUS44 KOUN 181730
TAFPNC
TAF
KPNC 181730Z 1818/1918 19008KT P6SM BKN009
      TEMPO 1818/1819 3SM BR BKN003
     FM181900 18006KT P6SM SCT010
     FM190100 21003KT 1SM BR VV002
     FM191700 21005KT 4SM BR OVC004=

USA.gov is the U.S. government's official web portal to all federal, state and local government web resources and services.